Meteorología y climatología de Navarra
Datos de la estación - Meteo Navarra

Estación de Getadar GN

Altitud 710 m.


Datos desde el 23/05/2020 hasta el 24/05/2020 en horario solar
Los datos son PROVISIONALES

Anterior Página 1 de 1 Siguiente Descargar: Formato para Excel 2000 o superior   Formato csv   Formato para OpenOffice Calc
Fecha Temperatura Humedad relativa Radiación global Insolación Precipitación Vel. viento 10 m Vel. viento 10 m Dir. viento 10 m
ºC % W/m² s l/m² m/s km/h º
23/05/2020 0:00 16.0 82 0.0 0 0.0 2.7 9.7 353
23/05/2020 0:10 15.9 83 0.0 0 0.0 2.6 9.3 351
23/05/2020 0:20 15.7 85 0.0 0 0.0 2.5 8.9 337
23/05/2020 0:30 15.6 86 0.0 0 0.0 2.7 9.7 346
23/05/2020 0:40 15.8 85 0.0 0 0.0 3.0 10.7 348
23/05/2020 0:50 15.5 86 0.0 0 0.0 3.2 11.4 346
23/05/2020 1:00 15.4 86 0.0 0 0.0 3.8 13.6 335
23/05/2020 1:10 15.3 86 0.0 0 0.0 3.9 14.0 344
23/05/2020 1:20 15.1 87 0.0 0 0.0 3.9 13.9 351
23/05/2020 1:30 14.7 89 0.0 0 0.0 3.9 14.1 344
23/05/2020 1:40 14.5 89 0.0 0 0.0 4.3 15.6 357
23/05/2020 1:50 14.4 89 0.0 0 0.0 3.2 11.6 343
23/05/2020 2:00 14.5 87 0.0 0 0.0 4.6 16.5 0
23/05/2020 2:10 14.5 88 0.0 0 0.0 3.6 12.8 349
23/05/2020 2:20 14.2 89 0.0 0 0.0 3.1 11.0 346
23/05/2020 2:30 14.0 90 0.0 0 0.0 4.3 15.3 349
23/05/2020 2:40 13.9 90 0.0 0 0.0 4.9 17.6 356
23/05/2020 2:50 14.0 89 0.0 0 0.0 6.1 21.9 360
23/05/2020 3:00 14.2 88 0.0 0 0.0 5.6 20.2 2
23/05/2020 3:10 14.1 89 0.0 0 0.0 5.6 20.3 358
23/05/2020 3:20 13.9 89 0.0 0 0.0 6.2 22.4 2
23/05/2020 3:30 13.8 89 0.0 0 0.0 4.7 17.0 353
23/05/2020 3:40 13.9 89 0.0 0 0.0 6.4 23.2 4
23/05/2020 3:50 13.8 89 0.0 0 0.0 6.3 22.6 359
23/05/2020 4:00 13.6 90 0.0 0 0.0 5.8 20.7 358
23/05/2020 4:10 13.6 90 0.0 0 0.0 6.1 21.8 358
23/05/2020 4:20 13.5 90 0.0 0 0.0 5.6 20.2 356
23/05/2020 4:30 13.6 90 0.0 0 0.0 5.8 20.8 358
23/05/2020 4:40 13.5 90 0.0 0 0.0 5.9 21.1 355
23/05/2020 4:50 13.5 90 16.4 0 0.0 6.5 23.5 1
23/05/2020 5:00 13.6 89 22.8 0 0.0 6.6 23.6 3
23/05/2020 5:10 13.7 89 31.2 0 0.0 6.1 22.1 1
23/05/2020 5:20 13.6 89 44.0 0 0.0 6.8 24.4 4
23/05/2020 5:30 13.7 89 75.5 446 0.0 6.7 24.1 4
23/05/2020 5:40 13.8 89 124.7 600 0.0 6.7 24.2 1
23/05/2020 5:50 13.9 88 123.0 480 0.0 7.1 25.6 2
23/05/2020 6:00 14.0 88 161.6 492 0.0 7.0 25.2 4
23/05/2020 6:10 14.2 87 209.8 600 0.0 6.4 23.0 1
23/05/2020 6:20 14.2 87 177.6 374 0.0 6.4 22.9 3
23/05/2020 6:30 14.2 87 247.0 538 0.0 6.1 21.9 3
23/05/2020 6:40 14.5 86 282.4 600 0.0 5.2 18.8 358
23/05/2020 6:50 14.7 85 295.0 600 0.0 6.0 21.4 1
23/05/2020 7:00 14.6 85 363.2 600 0.0 6.8 24.4 2
23/05/2020 7:10 14.7 85 240.4 198 0.0 7.2 25.9 3
23/05/2020 7:20 14.6 86 312.6 370 0.0 6.1 22.0 4
23/05/2020 7:30 15.0 84 465.4 600 0.0 7.6 27.3 4
23/05/2020 7:40 15.3 82 474.8 542 0.0 7.1 25.5 5
23/05/2020 7:50 15.6 81 462.9 510 0.0 5.4 19.5 352
23/05/2020 8:00 16.0 80 596.1 600 0.0 5.7 20.3 359
23/05/2020 8:10 16.4 78 597.5 562 0.0 6.0 21.5 6
23/05/2020 8:20 16.6 77 573.3 600 0.0 5.6 20.0 359
23/05/2020 8:30 16.9 76 637.3 600 0.0 5.1 18.3 354
23/05/2020 8:40 17.4 75 650.1 600 0.0 5.7 20.6 359
23/05/2020 8:50 17.2 75 469.8 534 0.0 5.5 19.7 2
23/05/2020 9:00 16.9 76 550.6 466 0.0 4.9 17.5 3
23/05/2020 9:10 17.6 74 697.0 600 0.0 5.1 18.3 359
23/05/2020 9:20 17.5 74 708.5 600 0.0 6.6 23.8 8
23/05/2020 9:30 17.8 73 813.0 600 0.0 5.1 18.3 357
23/05/2020 9:40 18.4 72 823.0 600 0.0 5.7 20.6 350
23/05/2020 9:50 18.2 72 787.9 600 0.0 6.5 23.5 350
23/05/2020 10:00 18.1 72 841.0 600 0.0 5.2 18.5 345
23/05/2020 10:10 18.3 72 840.0 600 0.0 5.9 21.2 344
23/05/2020 10:20 18.0 72 874.0 590 0.0 6.7 24.3 343
23/05/2020 10:30 17.8 73 940.0 600 0.0 7.2 25.8 343
23/05/2020 10:40 17.7 72 925.0 600 0.0 6.7 24.1 345
23/05/2020 10:50 17.4 72 925.0 600 0.0 6.5 23.5 350
23/05/2020 11:00 17.2 72 904.0 600 0.0 7.5 27.0 356
23/05/2020 11:10 17.4 71 935.0 600 0.0 6.9 24.7 353
23/05/2020 11:20 17.4 71 987.0 600 0.0 7.2 26.1 352
23/05/2020 11:30 17.4 70 907.0 600 0.0 7.4 26.6 351
23/05/2020 11:40 17.0 71 924.0 600 0.0 7.4 26.8 352
23/05/2020 11:50 16.9 70 970.0 600 0.0 8.8 31.7 3
23/05/2020 12:00 16.9 70 975.0 600 0.0 8.9 31.9 2
23/05/2020 12:10 16.7 70 977.0 600 0.0 9.0 32.4 360
23/05/2020 12:20 16.9 69 982.0 600 0.0 8.4 30.1 0
23/05/2020 12:30 17.6 67 1008.0 600 0.0 5.9 21.2 1
23/05/2020 12:40 17.8 66 1082.0 600 0.0 6.7 24.1 3
23/05/2020 12:50 17.8 65 1083.0 600 0.0 7.1 25.5 359
23/05/2020 13:00 17.5 66 1012.0 600 0.0 7.5 27.1 1
23/05/2020 13:10 17.2 67 955.0 600 0.0 7.5 26.9 359
23/05/2020 13:20 17.2 67 946.0 598 0.0 7.3 26.3 2
23/05/2020 13:30 17.3 66 892.0 600 0.0 7.6 27.4 5
23/05/2020 13:40 17.3 64 892.0 600 0.0 8.2 29.7 8
23/05/2020 13:50 17.3 64 958.0 600 0.0 7.5 27.0 358
23/05/2020 14:00 17.6 63 1040.0 600 0.0 8.4 30.4 5
23/05/2020 14:10 17.2 64 538.9 424 0.0 7.5 27.0 0
23/05/2020 14:20 16.3 67 495.2 314 0.0 8.2 29.3 4
23/05/2020 14:30 16.0 69 525.1 294 0.0 8.2 29.4 2
23/05/2020 14:40 15.9 70 821.0 600 0.0 8.4 30.3 359
23/05/2020 14:50 15.9 69 773.7 600 0.0 9.4 33.8 8
23/05/2020 15:00 15.8 69 754.0 600 0.0 9.6 34.7 6
23/05/2020 15:10 15.7 68 731.9 600 0.0 8.0 28.7 3
23/05/2020 15:20 15.7 69 705.7 600 0.0 10.1 36.2 3
23/05/2020 15:30 15.5 69 680.3 600 0.0 8.6 30.9 4
23/05/2020 15:40 15.6 68 655.9 600 0.0 8.8 31.6 9
23/05/2020 15:50 15.3 68 631.1 600 0.0 9.2 33.0 8
23/05/2020 16:00 15.1 68 599.8 600 0.0 9.8 35.1 17
23/05/2020 16:10 14.9 68 570.5 600 0.0 7.4 26.7 12
23/05/2020 16:20 14.9 68 538.6 600 0.0 6.6 23.9 9
23/05/2020 16:30 14.4 69 512.0 600 0.0 10.4 37.4 1
23/05/2020 16:40 14.1 69 482.0 600 0.0 10.3 36.9 2
23/05/2020 16:50 14.0 70 452.4 600 0.0 11.9 42.7 4
23/05/2020 17:00 14.1 70 420.5 600 0.0 11.6 41.6 1
23/05/2020 17:10 13.9 70 389.0 600 0.0 12.6 45.3 2
23/05/2020 17:20 13.8 70 357.8 600 0.0 12.5 44.8 0
23/05/2020 17:30 13.8 70 325.6 600 0.0 12.3 44.2 4
23/05/2020 17:40 13.8 71 294.1 600 0.0 10.6 38.1 359
23/05/2020 17:50 13.6 73 263.3 600 0.0 10.6 38.1 2
23/05/2020 18:00 13.3 74 232.8 600 0.0 9.0 32.3 359
23/05/2020 18:10 13.1 75 202.5 600 0.0 8.9 31.9 1
23/05/2020 18:20 12.7 77 172.0 600 0.0 10.0 36.0 1
23/05/2020 18:30 12.3 79 139.3 570 0.0 9.7 34.8 359
23/05/2020 18:40 12.0 80 102.7 512 0.0 10.7 38.4 360
23/05/2020 18:50 11.8 81 80.4 514 0.0 9.5 34.1 3
23/05/2020 19:00 11.6 82 65.4 600 0.0 10.3 36.9 360
23/05/2020 19:10 11.5 83 37.4 328 0.0 11.1 40.0 2
23/05/2020 19:20 11.4 83 21.7 0 0.0 11.1 40.0 1
23/05/2020 19:30 11.3 83 16.8 0 0.0 11.2 40.2 2
23/05/2020 19:40 11.3 84 0.7 0 0.0 11.0 39.7 0
23/05/2020 19:50 11.2 84 0.0 0 0.0 9.8 35.1 358
23/05/2020 20:00 11.2 84 0.0 0 0.0 9.9 35.6 1
23/05/2020 20:10 11.2 84 0.0 0 0.0 9.9 35.7 3
23/05/2020 20:20 11.1 85 0.0 0 0.0 9.7 34.9 0
23/05/2020 20:30 11.1 85 0.0 0 0.0 9.8 35.1 1
23/05/2020 20:40 11.1 85 0.0 0 0.0 9.6 34.5 359
23/05/2020 20:50 11.1 85 0.0 0 0.0 10.4 37.5 358
23/05/2020 21:00 11.1 85 0.0 0 0.0 10.3 37.2 359
23/05/2020 21:10 11.1 86 0.0 0 0.0 10.0 35.9 2
23/05/2020 21:20 11.1 85 0.0 0 0.0 9.8 35.2 2
23/05/2020 21:30 11.1 86 0.0 0 0.0 7.6 27.4 360
23/05/2020 21:40 10.9 87 0.0 0 0.0 4.2 15.0 352
23/05/2020 21:50 10.7 87 0.0 0 0.0 2.3 8.1 358
23/05/2020 22:00 10.6 88 0.0 0 0.0 2.8 10.0 351
23/05/2020 22:10 10.6 88 0.0 0 0.0 1.8 6.4 358
23/05/2020 22:20 10.6 88 0.0 0 0.0 2.7 9.7 348
23/05/2020 22:30 10.6 87 0.0 0 0.0 5.1 18.3 351
23/05/2020 22:40 10.5 88 0.0 0 0.0 6.1 21.8 353
23/05/2020 22:50 10.4 88 0.0 0 0.0 5.6 20.1 348
23/05/2020 23:00 10.5 88 0.0 0 0.0 6.7 24.0 349
23/05/2020 23:10 10.4 88 0.0 0 0.0 5.5 19.9 346
23/05/2020 23:20 10.3 88 0.0 0 0.0 5.3 19.1 346
23/05/2020 23:30 10.3 88 0.0 0 0.0 6.0 21.7 345
23/05/2020 23:40 10.2 88 0.0 0 0.0 5.4 19.4 341
23/05/2020 23:50 10.3 88 0.0 0 0.0 4.4 15.7 341
Anterior Página 1 de 1 Siguiente

NOTA: Tipo de datos según el color:
   - Valores diarios o 10 minutos correctos
   - Valores diarios calculados a partir de un número de datos 10 minutos menor que 144 y mayor que 120, o de un número de datos semihorarios menor que 48 y mayor que 40 (caso de las estaciones de INTIA y del Ministerio)
   - Valores diez minutos estimados


Contacto        Enlaces        Aviso legal